createdAt,value
2023-04-10T00:02:00.421Z,6.75
2023-04-10T00:04:28.431Z,5.97
2023-04-10T00:06:55.484Z,8.50
2023-04-10T00:09:22.024Z,6.60
2023-04-10T00:11:48.553Z,5.78
2023-04-10T00:14:15.035Z,6.22
2023-04-10T00:16:41.572Z,7.38
2023-04-10T00:19:08.119Z,7.07
2023-04-10T00:21:34.663Z,6.10
2023-04-10T00:24:01.225Z,6.18
2023-04-10T00:26:27.708Z,7.32
2023-04-10T00:28:54.332Z,7.00
2023-04-10T00:31:20.850Z,5.50
2023-04-10T00:33:47.300Z,7.35
2023-04-10T00:36:13.842Z,7.80
2023-04-10T00:38:40.421Z,7.22
2023-04-10T00:41:07.066Z,7.05
2023-04-10T00:43:33.540Z,7.22
2023-04-10T00:46:00.344Z,6.00
2023-04-10T00:48:26.868Z,6.13
2023-04-10T00:50:53.428Z,7.07
2023-04-10T00:53:20.329Z,6.80
2023-04-10T00:55:47.248Z,7.20
2023-04-10T00:58:14.594Z,6.90
2023-04-10T01:00:41.706Z,6.53
2023-04-10T01:03:09.773Z,8.27
2023-04-10T01:05:47.585Z,5.88
2023-04-10T01:08:26.117Z,6.65
2023-04-10T01:11:07.165Z,6.78
2023-04-10T01:14:15.568Z,6.68
2023-04-10T01:17:06.411Z,6.78
2023-04-10T01:20:01.100Z,6.40
2023-04-10T01:22:53.053Z,6.93
2023-04-10T01:25:28.299Z,7.50
2023-04-10T01:28:20.838Z,7.82
2023-04-10T01:30:59.288Z,7.63
2023-04-10T01:33:32.599Z,7.75
2023-04-10T01:36:05.150Z,7.75
2023-04-10T01:38:33.148Z,9.10
2023-04-10T01:41:01.156Z,7.93
2023-04-10T01:43:29.313Z,7.40
2023-04-10T01:45:57.568Z,7.88
2023-04-10T01:48:24.937Z,7.43
2023-04-10T01:50:53.099Z,8.13
2023-04-10T01:53:21.003Z,7.35
2023-04-10T01:55:48.271Z,8.50
2023-04-10T01:58:16.444Z,8.00
2023-04-10T02:00:43.851Z,7.65
2023-04-10T02:03:11.301Z,7.10
2023-04-10T02:06:21.438Z,8.43
2023-04-10T02:08:55.648Z,8.07
2023-04-10T02:11:34.135Z,9.35
2023-04-10T02:14:04.093Z,8.40
2023-04-10T02:16:33.098Z,8.10
2023-04-10T02:19:02.224Z,10.30
2023-04-10T02:21:29.031Z,8.05
2023-04-10T02:23:58.695Z,8.38
2023-04-10T02:26:25.213Z,8.05
2023-04-10T02:28:51.756Z,8.80
2023-04-10T02:31:18.450Z,8.70
2023-04-10T02:33:45.033Z,7.82
2023-04-10T02:36:11.590Z,8.90
2023-04-10T02:38:38.064Z,8.90
2023-04-10T02:41:04.782Z,8.63
2023-04-10T02:43:31.296Z,8.52
2023-04-10T02:45:57.797Z,7.63
2023-04-10T02:48:24.206Z,9.05
2023-04-10T02:50:56.695Z,8.45
2023-04-10T02:53:23.195Z,7.72
2023-04-10T02:55:49.678Z,7.80
2023-04-10T02:58:17.335Z,7.57
2023-04-10T03:00:48.791Z,8.38
2023-04-10T03:03:15.520Z,7.70
2023-04-10T03:05:42.504Z,9.88
2023-04-10T03:08:08.892Z,8.77
2023-04-10T03:10:35.366Z,9.10
2023-04-10T03:13:01.798Z,9.45
2023-04-10T03:15:28.204Z,8.23
2023-04-10T03:17:54.700Z,8.20
2023-04-10T03:20:21.181Z,7.55
2023-04-10T03:22:48.236Z,9.85
2023-04-10T03:25:14.863Z,8.35
2023-04-10T03:27:41.282Z,9.52
2023-04-10T03:30:08.349Z,8.20
2023-04-10T03:32:34.837Z,8.68
2023-04-10T03:35:01.280Z,9.13
2023-04-10T03:37:27.824Z,8.95
2023-04-10T03:39:54.277Z,9.68
2023-04-10T03:42:20.699Z,8.30
2023-04-10T03:44:47.162Z,16.42
2023-04-10T03:47:13.732Z,9.50
2023-04-10T03:49:40.441Z,9.48
2023-04-10T03:52:07.362Z,9.07
2023-04-10T03:54:33.902Z,8.38
2023-04-10T03:57:01.477Z,9.43
2023-04-10T03:59:37.813Z,8.40
2023-04-10T04:02:07.169Z,12.57
2023-04-10T04:04:34.184Z,8.02
2023-04-10T04:07:00.685Z,8.25
2023-04-10T04:09:27.121Z,9.52
2023-04-10T04:11:53.598Z,9.07
2023-04-10T04:14:20.139Z,9.82
2023-04-10T04:16:47.277Z,9.70
2023-04-10T04:19:13.760Z,10.20
2023-04-10T04:21:40.317Z,9.80
2023-04-10T04:24:06.874Z,10.30
2023-04-10T04:26:33.592Z,10.52
2023-04-10T04:29:00.196Z,12.77
2023-04-10T04:31:32.459Z,8.43
2023-04-10T04:34:00.134Z,8.50
2023-04-10T04:36:27.712Z,9.02
2023-04-10T04:38:54.619Z,8.90
2023-04-10T04:41:21.347Z,9.98
2023-04-10T04:43:47.779Z,8.90
2023-04-10T04:46:14.211Z,8.90
2023-04-10T04:48:40.667Z,9.88
2023-04-10T04:51:07.439Z,8.85
2023-04-10T04:53:33.867Z,8.55
2023-04-10T04:56:00.325Z,10.05
2023-04-10T04:58:26.776Z,10.50
2023-04-10T05:00:53.328Z,9.73
2023-04-10T05:03:20.050Z,9.00
2023-04-10T05:05:46.722Z,10.40
2023-04-10T05:08:13.206Z,10.80
2023-04-10T05:10:39.684Z,10.18
2023-04-10T05:13:06.244Z,8.40
2023-04-10T05:15:32.783Z,10.88
2023-04-10T05:17:59.248Z,9.55
2023-04-10T05:20:26.340Z,9.55
2023-04-10T05:22:53.080Z,9.18
2023-04-10T05:25:19.703Z,8.77
2023-04-10T05:27:46.099Z,9.25
2023-04-10T05:30:12.809Z,8.90
2023-04-10T05:32:39.328Z,9.30
2023-04-10T05:35:06.282Z,8.48
2023-04-10T05:37:33.047Z,8.40
2023-04-10T05:39:59.961Z,8.30
2023-04-10T05:42:26.391Z,7.82
2023-04-10T05:44:52.885Z,10.05
2023-04-10T05:47:19.371Z,10.25
2023-04-10T05:49:45.872Z,9.00
2023-04-10T05:52:12.328Z,9.60
2023-04-10T05:54:38.898Z,7.93
2023-04-10T05:57:05.358Z,8.70
2023-04-10T05:59:31.782Z,8.68
2023-04-10T06:01:58.256Z,9.18
2023-04-10T06:04:24.955Z,8.63
2023-04-10T06:06:51.475Z,8.85
2023-04-10T06:09:17.918Z,8.27
2023-04-10T06:11:44.361Z,9.38
2023-04-10T06:14:10.770Z,8.43
2023-04-10T06:16:37.306Z,8.35
2023-04-10T06:19:03.829Z,10.20
2023-04-10T06:21:31.796Z,8.68
2023-04-10T06:23:58.268Z,9.27
2023-04-10T06:26:25.912Z,9.75
2023-04-10T06:28:52.645Z,7.90
2023-04-10T06:31:22.104Z,9.65
2023-04-10T06:33:51.575Z,8.93
2023-04-10T06:36:18.095Z,8.57
2023-04-10T06:38:44.490Z,8.27
2023-04-10T06:41:11.514Z,9.18
2023-04-10T06:43:39.236Z,8.50
2023-04-10T06:46:06.173Z,9.20
2023-04-10T06:48:33.256Z,9.82
2023-04-10T06:51:02.301Z,9.23
2023-04-10T06:53:28.948Z,8.75
2023-04-10T06:55:56.782Z,9.68
2023-04-10T06:58:24.380Z,7.90
2023-04-10T07:00:51.021Z,9.13
2023-04-10T07:03:17.572Z,10.82
2023-04-10T07:05:44.071Z,7.53
2023-04-10T07:08:10.496Z,8.82
2023-04-10T07:10:37.359Z,8.55
2023-04-10T07:13:03.867Z,10.02
2023-04-10T07:15:30.714Z,8.27
2023-04-10T07:17:57.264Z,9.07
2023-04-10T07:20:23.802Z,7.80
2023-04-10T07:22:50.374Z,7.60
2023-04-10T07:25:18.345Z,8.43
2023-04-10T07:27:44.796Z,9.70
2023-04-10T07:30:13.395Z,8.35
2023-04-10T07:32:42.093Z,8.60
2023-04-10T07:35:09.311Z,8.13
2023-04-10T07:37:36.021Z,8.13
2023-04-10T07:40:02.967Z,7.80
2023-04-10T07:42:30.366Z,6.63
2023-04-10T07:44:57.202Z,8.05
2023-04-10T07:47:23.703Z,8.30
2023-04-10T07:49:50.345Z,9.23
2023-04-10T07:52:16.830Z,9.68
2023-04-10T07:54:43.517Z,8.23
2023-04-10T07:57:09.962Z,7.10
2023-04-10T07:59:36.421Z,8.25
2023-04-10T08:02:03.028Z,6.97
2023-04-10T08:04:29.857Z,8.07
2023-04-10T08:06:56.525Z,7.72
2023-04-10T08:09:22.946Z,8.95
2023-04-10T08:11:49.389Z,8.52
2023-04-10T08:14:18.475Z,7.95
2023-04-10T08:16:45.270Z,7.80
2023-04-10T08:19:11.963Z,7.45
2023-04-10T08:21:38.405Z,7.78
2023-04-10T08:24:05.349Z,7.43
2023-04-10T08:26:32.066Z,8.18
2023-04-10T08:29:00.670Z,7.68
2023-04-10T08:31:28.826Z,8.13
2023-04-10T08:33:56.125Z,8.13
2023-04-10T08:36:22.978Z,7.63
2023-04-10T08:38:49.540Z,9.80
2023-04-10T08:41:18.492Z,7.68
2023-04-10T08:43:46.203Z,8.07
2023-04-10T08:46:14.390Z,7.82
2023-04-10T08:48:53.506Z,10.40
2023-04-10T08:51:26.303Z,7.78
2023-04-10T08:53:58.275Z,8.65
2023-04-10T08:56:25.245Z,7.43
2023-04-10T08:58:52.022Z,7.55
2023-04-10T09:01:21.123Z,9.35
2023-04-10T09:03:48.277Z,8.38
2023-04-10T09:06:14.792Z,7.60
2023-04-10T09:08:41.420Z,8.15
2023-04-10T09:11:07.938Z,7.53
2023-04-10T09:13:42.246Z,8.18
2023-04-10T09:16:10.534Z,6.57
2023-04-10T09:18:51.488Z,7.47
2023-04-10T09:21:21.689Z,6.90
2023-04-10T09:23:49.163Z,7.93
2023-04-10T09:26:29.112Z,8.75
2023-04-10T09:28:57.833Z,7.25
2023-04-10T09:31:30.396Z,7.32
2023-04-10T09:34:16.581Z,6.97
2023-04-10T09:36:45.193Z,8.05
2023-04-10T09:39:12.612Z,7.28
2023-04-10T09:41:52.929Z,9.27
2023-04-10T09:44:29.932Z,6.90
2023-04-10T09:46:56.789Z,6.57
2023-04-10T09:49:23.632Z,7.55
2023-04-10T09:51:52.792Z,6.85
2023-04-10T09:54:19.575Z,6.80
2023-04-10T09:56:48.069Z,7.38
2023-04-10T09:59:16.341Z,7.00
2023-04-10T10:01:43.633Z,7.93
2023-04-10T10:04:11.188Z,7.20
2023-04-10T10:06:38.521Z,6.70
2023-04-10T10:09:05.679Z,7.10
2023-04-10T10:11:35.785Z,8.55
2023-04-10T10:14:15.601Z,9.50
2023-04-10T10:16:51.260Z,5.90
2023-04-10T10:19:31.697Z,7.05
2023-04-10T10:22:01.301Z,6.80
2023-04-10T10:24:28.293Z,6.00
2023-04-10T10:26:55.845Z,6.32
2023-04-10T10:29:23.953Z,9.73
2023-04-10T10:31:51.091Z,6.35
2023-04-10T10:34:18.385Z,6.15
2023-04-10T10:36:44.932Z,6.35
2023-04-10T10:39:45.316Z,7.15
2023-04-10T10:42:16.128Z,6.40
2023-04-10T10:45:02.543Z,6.13
2023-04-10T10:47:30.884Z,6.53
2023-04-10T10:50:01.993Z,6.30
2023-04-10T10:52:57.590Z,6.97
2023-04-10T10:55:24.577Z,6.57
2023-04-10T10:57:52.787Z,6.50
2023-04-10T11:00:23.514Z,5.30
2023-04-10T11:03:12.995Z,8.70
2023-04-10T11:05:53.138Z,5.88
2023-04-10T11:08:43.999Z,5.47
2023-04-10T11:11:23.278Z,5.80
2023-04-10T11:13:49.658Z,6.03
2023-04-10T11:16:16.496Z,6.30
2023-04-10T11:18:46.103Z,5.97
2023-04-10T11:21:13.476Z,6.65
2023-04-10T11:24:00.575Z,6.32
2023-04-10T11:26:36.639Z,5.22
2023-04-10T11:29:07.388Z,6.00
2023-04-10T11:31:34.362Z,5.88
2023-04-10T11:34:02.119Z,6.20
2023-04-10T11:36:28.911Z,6.28
2023-04-10T11:39:15.938Z,5.70
2023-04-10T11:41:44.400Z,6.03
2023-04-10T11:44:13.342Z,5.35
2023-04-10T11:46:48.284Z,5.78
2023-04-10T11:49:34.441Z,6.80
2023-04-10T11:52:01.328Z,5.88
2023-04-10T11:54:29.356Z,7.00
2023-04-10T11:57:11.623Z,5.82
2023-04-10T11:59:38.184Z,5.97
2023-04-10T12:02:14.603Z,6.07
2023-04-10T12:04:44.685Z,6.60
2023-04-10T12:07:11.877Z,5.13
2023-04-10T12:09:38.571Z,5.20
2023-04-10T12:12:06.686Z,5.40
2023-04-10T12:14:42.618Z,5.40
2023-04-10T12:17:11.038Z,4.90
2023-04-10T12:19:40.957Z,4.95
2023-04-10T12:22:07.966Z,6.20
2023-04-10T12:24:53.511Z,6.03
2023-04-10T12:27:22.692Z,5.38
2023-04-10T12:29:51.494Z,4.82
2023-04-10T12:32:18.699Z,5.35
2023-04-10T12:34:57.452Z,5.13
2023-04-10T12:37:44.666Z,6.30
2023-04-10T12:40:12.554Z,4.78
2023-04-10T12:42:42.938Z,4.72
2023-04-10T12:45:12.930Z,4.82
2023-04-10T12:47:52.051Z,3.97
2023-04-10T12:50:21.009Z,3.38
2023-04-10T12:53:03.621Z,3.20
2023-04-10T12:55:31.197Z,4.13
2023-04-10T12:57:57.693Z,3.10
2023-04-10T13:00:25.805Z,3.30
2023-04-10T13:02:52.473Z,3.13
2023-04-10T13:05:19.257Z,2.53
2023-04-10T13:07:45.805Z,3.10
2023-04-10T13:10:13.111Z,3.08
2023-04-10T13:12:40.664Z,3.90
2023-04-10T13:15:07.856Z,3.70
2023-04-10T13:17:34.748Z,3.83
2023-04-10T13:20:01.191Z,4.97
2023-04-10T13:22:27.754Z,3.65
2023-04-10T13:24:54.369Z,3.67
2023-04-10T13:27:20.802Z,3.55
2023-04-10T13:29:47.231Z,3.88
2023-04-10T13:32:13.626Z,3.70
2023-04-10T13:34:40.113Z,3.60
2023-04-10T13:37:06.642Z,4.10
2023-04-10T13:39:33.084Z,3.50
2023-04-10T13:41:59.654Z,3.80
2023-04-10T13:44:26.455Z,4.72
2023-04-10T13:46:53.522Z,3.40
2023-04-10T13:49:21.872Z,3.45
2023-04-10T13:51:48.541Z,3.80
2023-04-10T13:54:17.007Z,3.50
2023-04-10T13:56:44.430Z,3.42
2023-04-10T13:59:11.192Z,4.43
2023-04-10T14:01:37.881Z,3.38
2023-04-10T14:04:04.473Z,3.20
2023-04-10T14:06:31.771Z,3.25
2023-04-10T14:08:58.487Z,4.65
2023-04-10T14:11:25.894Z,3.30
2023-04-10T14:13:52.599Z,3.38
2023-04-10T14:16:19.547Z,3.35
2023-04-10T14:18:46.163Z,3.75
2023-04-10T14:21:12.696Z,2.90
2023-04-10T14:23:39.112Z,3.55
2023-04-10T14:26:06.570Z,3.17
2023-04-10T14:28:33.436Z,3.75
2023-04-10T14:31:00.893Z,3.20
2023-04-10T14:33:27.422Z,5.38
2023-04-10T14:35:54.300Z,3.65
2023-04-10T14:38:20.893Z,3.28
2023-04-10T14:40:50.045Z,4.00
2023-04-10T14:43:16.818Z,3.50
2023-04-10T14:45:43.339Z,3.30
2023-04-10T14:48:09.910Z,3.30
2023-04-10T14:50:36.562Z,3.00
2023-04-10T14:53:03.081Z,3.20
2023-04-10T14:55:30.447Z,2.80
2023-04-10T14:57:58.574Z,3.22
2023-04-10T15:00:25.939Z,2.50
2023-04-10T15:02:52.692Z,3.08
2023-04-10T15:05:19.396Z,2.50
2023-04-10T15:07:45.896Z,2.22
2023-04-10T15:10:12.842Z,2.78
2023-04-10T15:12:39.579Z,2.45
2023-04-10T15:15:06.933Z,2.30
2023-04-10T15:17:33.711Z,2.40
2023-04-10T15:20:00.369Z,2.10
2023-04-10T15:22:27.251Z,2.15
2023-04-10T15:24:53.656Z,2.20
2023-04-10T15:27:21.272Z,2.10
2023-04-10T15:29:48.428Z,2.28
2023-04-10T15:32:14.916Z,2.40
2023-04-10T15:34:41.391Z,2.10
2023-04-10T15:37:07.818Z,2.60
2023-04-10T15:39:36.828Z,2.47
2023-04-10T15:42:05.331Z,3.90
2023-04-10T15:44:32.054Z,2.30
2023-04-10T15:46:58.482Z,2.78
2023-04-10T15:49:36.201Z,2.35
2023-04-10T15:52:05.796Z,2.33
2023-04-10T15:54:33.680Z,2.65
2023-04-10T15:57:01.511Z,2.97
2023-04-10T15:59:28.023Z,1.90
2023-04-10T16:01:54.554Z,1.77
2023-04-10T16:04:21.223Z,1.90
2023-04-10T16:06:47.778Z,1.95
2023-04-10T16:09:24.945Z,2.00
2023-04-10T16:11:52.940Z,1.90
2023-04-10T16:14:19.411Z,6.32
2023-04-10T16:16:45.957Z,6.00
2023-04-10T16:19:12.399Z,11.13
2023-04-10T16:21:38.844Z,11.52
2023-04-10T16:24:05.620Z,11.57
2023-04-10T16:26:32.112Z,12.82
2023-04-10T16:28:58.612Z,3.08
2023-04-10T16:31:25.174Z,3.03
2023-04-10T16:33:52.491Z,2.35
2023-04-10T16:36:18.935Z,2.58
2023-04-10T16:38:47.303Z,2.30
2023-04-10T16:41:17.408Z,2.15
2023-04-10T16:43:44.358Z,2.47
2023-04-10T16:46:10.902Z,2.20
2023-04-10T16:48:38.219Z,2.15
2023-04-10T16:51:06.340Z,2.13
2023-04-10T16:53:33.819Z,2.20
2023-04-10T16:56:02.958Z,2.15
2023-04-10T16:58:31.236Z,2.45
2023-04-10T17:00:58.683Z,2.22
2023-04-10T17:03:25.326Z,2.13
2023-04-10T17:05:51.738Z,2.20
2023-04-10T17:08:18.146Z,3.90
2023-04-10T17:10:45.284Z,2.67
2023-04-10T17:13:11.853Z,2.58
2023-04-10T17:15:38.385Z,29.05
2023-04-10T17:18:04.831Z,10.15
2023-04-10T17:20:35.693Z,4.82
2023-04-10T17:23:02.116Z,6.85
2023-04-10T17:25:28.770Z,2.80
2023-04-10T17:27:55.339Z,3.08
2023-04-10T17:30:21.753Z,2.45
2023-04-10T17:32:49.181Z,2.20
2023-04-10T17:35:16.314Z,2.30
2023-04-10T17:37:42.710Z,3.13
2023-04-10T17:40:11.695Z,2.25
2023-04-10T17:42:38.292Z,2.40
2023-04-10T17:45:05.199Z,2.05
2023-04-10T17:47:31.830Z,2.83
2023-04-10T17:49:58.332Z,2.10
2023-04-10T17:52:24.778Z,2.60
2023-04-10T17:54:51.203Z,2.85
2023-04-10T17:57:17.675Z,2.20
2023-04-10T17:59:44.081Z,2.53
2023-04-10T18:02:10.696Z,3.03
2023-04-10T18:04:37.182Z,2.53
2023-04-10T18:07:03.567Z,5.07
2023-04-10T18:09:30.276Z,2.47
2023-04-10T18:11:56.680Z,2.38
2023-04-10T18:14:23.123Z,1.90
2023-04-10T18:16:49.653Z,2.10
2023-04-10T18:19:16.153Z,2.50
2023-04-10T18:21:42.594Z,2.00
2023-04-10T18:24:13.835Z,1.98
2023-04-10T18:26:40.775Z,2.08
2023-04-10T18:29:07.533Z,2.05
2023-04-10T18:31:34.086Z,1.65
2023-04-10T18:34:07.816Z,2.70
2023-04-10T18:36:35.254Z,1.77
2023-04-10T18:39:01.855Z,4.32
2023-04-10T18:41:28.326Z,1.60
2023-04-10T18:44:04.285Z,5.10
2023-04-10T18:46:32.625Z,3.83
2023-04-10T18:49:00.960Z,2.40
2023-04-10T18:51:27.811Z,2.10
2023-04-10T18:53:54.614Z,2.50
2023-04-10T18:56:21.277Z,3.15
2023-04-10T18:58:49.845Z,2.05
2023-04-10T19:01:17.786Z,2.50
2023-04-10T19:03:46.444Z,6.30
2023-04-10T19:06:14.251Z,3.20
2023-04-10T19:08:40.732Z,2.78
2023-04-10T19:11:07.900Z,4.60
2023-04-10T19:13:34.760Z,3.08
2023-04-10T19:16:04.495Z,2.50
2023-04-10T19:18:31.425Z,3.38
2023-04-10T19:20:59.277Z,3.72
2023-04-10T19:23:26.534Z,5.63
2023-04-10T19:25:54.673Z,2.80
2023-04-10T19:28:23.178Z,3.28
2023-04-10T19:30:49.933Z,2.80
2023-04-10T19:33:17.138Z,4.15
2023-04-10T19:35:43.609Z,5.07
2023-04-10T19:38:10.075Z,3.50
2023-04-10T19:40:37.020Z,3.97
2023-04-10T19:43:03.516Z,4.22
2023-04-10T19:45:32.190Z,3.33
2023-04-10T19:47:58.824Z,4.20
2023-04-10T19:50:27.631Z,4.15
2023-04-10T19:52:54.028Z,4.25
2023-04-10T19:55:20.860Z,6.13
2023-04-10T19:57:47.891Z,3.92
2023-04-10T20:00:14.565Z,4.50
2023-04-10T20:02:41.241Z,4.45
2023-04-10T20:05:08.330Z,6.00
2023-04-10T20:07:35.478Z,5.85
2023-04-10T20:10:04.474Z,4.80
2023-04-10T20:12:34.295Z,5.60
2023-04-10T20:15:02.208Z,5.35
2023-04-10T20:17:29.495Z,7.90
2023-04-10T20:19:56.426Z,6.15
2023-04-10T20:22:22.876Z,5.55
2023-04-10T20:24:49.310Z,6.10
2023-04-10T20:27:15.950Z,5.93
2023-04-10T20:29:42.667Z,6.47
2023-04-10T20:32:09.628Z,8.38
2023-04-10T20:34:36.904Z,6.45
2023-04-10T20:37:03.941Z,5.72
2023-04-10T20:39:30.348Z,5.55
2023-04-10T20:41:57.288Z,4.28
2023-04-10T20:44:23.841Z,4.70
2023-04-10T20:46:50.876Z,4.07
2023-04-10T20:49:17.564Z,4.88
2023-04-10T20:51:44.222Z,3.03
2023-04-10T20:54:11.573Z,3.22
2023-04-10T20:56:43.527Z,2.33
2023-04-10T20:59:11.141Z,2.40
2023-04-10T21:01:38.163Z,3.30
2023-04-10T21:04:05.321Z,2.53
2023-04-10T21:06:33.309Z,3.42
2023-04-10T21:08:59.897Z,1.60
2023-04-10T21:11:27.314Z,2.65
2023-04-10T21:13:54.238Z,4.70
2023-04-10T21:16:20.900Z,2.75
2023-04-10T21:18:47.629Z,4.45
2023-04-10T21:21:14.271Z,3.47
2023-04-10T21:23:40.959Z,4.82
2023-04-10T21:26:07.745Z,1.95
2023-04-10T21:28:34.221Z,4.95
2023-04-10T21:31:00.774Z,2.65
2023-04-10T21:33:27.401Z,3.88
2023-04-10T21:35:54.043Z,2.03
2023-04-10T21:38:20.809Z,2.63
2023-04-10T21:40:51.525Z,4.78
2023-04-10T21:43:18.440Z,4.18
2023-04-10T21:45:44.854Z,2.90
2023-04-10T21:48:11.347Z,1.55
2023-04-10T21:50:39.662Z,2.97
2023-04-10T21:53:06.166Z,3.42
2023-04-10T21:55:32.600Z,5.05
2023-04-10T21:57:59.034Z,4.05
2023-04-10T22:00:25.623Z,2.42
2023-04-10T22:02:52.387Z,3.65
2023-04-10T22:05:18.992Z,4.82
2023-04-10T22:07:45.624Z,3.47
2023-04-10T22:10:12.200Z,3.05
2023-04-10T22:12:38.660Z,5.07
2023-04-10T22:15:07.759Z,2.50
2023-04-10T22:17:34.539Z,4.15
2023-04-10T22:20:01.873Z,2.83
2023-04-10T22:22:28.400Z,3.95
2023-04-10T22:24:54.915Z,2.78
2023-04-10T22:27:21.394Z,2.65
2023-04-10T22:29:59.989Z,2.00
2023-04-10T22:32:29.547Z,2.53
2023-04-10T22:34:55.988Z,3.47
2023-04-10T22:37:22.413Z,4.38
2023-04-10T22:39:48.908Z,4.93
2023-04-10T22:42:15.783Z,5.15
2023-04-10T22:44:42.206Z,3.72
2023-04-10T22:47:08.647Z,6.15
2023-04-10T22:49:35.055Z,4.10
2023-04-10T22:52:01.496Z,9.52
2023-04-10T22:54:29.244Z,2.80
2023-04-10T22:56:57.140Z,5.88
2023-04-10T22:59:23.747Z,4.85
2023-04-10T23:01:51.429Z,5.97
2023-04-10T23:04:18.236Z,8.45
2023-04-10T23:06:44.789Z,8.20
2023-04-10T23:09:11.268Z,7.30
2023-04-10T23:11:37.749Z,8.35
2023-04-10T23:14:04.222Z,6.07
2023-04-10T23:16:30.743Z,4.53
2023-04-10T23:18:57.284Z,4.07
2023-04-10T23:21:23.699Z,6.10
2023-04-10T23:23:50.129Z,3.83
2023-04-10T23:26:16.564Z,6.07
2023-04-10T23:28:43.015Z,5.93
2023-04-10T23:31:09.636Z,3.70
2023-04-10T23:33:36.156Z,3.47
2023-04-10T23:36:02.678Z,6.15
2023-04-10T23:38:29.208Z,2.90
2023-04-10T23:40:55.709Z,12.13
2023-04-10T23:43:22.326Z,2.97
2023-04-10T23:45:48.801Z,1.00
2023-04-10T23:48:15.334Z,3.08
2023-04-10T23:50:41.763Z,3.67
2023-04-10T23:53:08.715Z,2.00
2023-04-10T23:55:35.904Z,2.67
2023-04-10T23:58:02.692Z,2.75
